Time;durP1;ratioP1;P1;durP2;ratioP2;P2;SDS_P1;SDS_P2;PMS_P1;PMS_P2;Temp;Humidity;BMP_temperature;BMP_pressure;BME280_temperature;BME280_humidity;BME280_pressure;Samples;Min_cycle;Max_cycle;Signal;HPM_P1;HPM_P2
2022/12/09 00:00:04;;;;;;;25.67;18.67;;;4.50;99.90;;;;;;5050745;28;20489;-29
2022/12/09 00:02:30;;;;;;;24.13;16.33;;;4.60;99.90;;;;;;5047167;28;20764;-33
2022/12/09 00:04:55;;;;;;;23.77;18.63;;;4.40;99.90;;;;;;5050946;28;20522;-31
2022/12/09 00:07:21;;;;;;;23.87;17.53;;;4.60;99.90;;;;;;5051727;28;20445;-30
2022/12/09 00:09:46;;;;;;;23.83;17.80;;;4.40;99.90;;;;;;5050562;28;20216;-33
2022/12/09 00:12:12;;;;;;;24.57;17.60;;;4.50;99.90;;;;;;5049887;28;20185;-33
2022/12/09 00:14:37;;;;;;;25.03;17.23;;;4.60;99.90;;;;;;5050697;28;20197;-37
2022/12/09 00:17:03;;;;;;;22.77;16.87;;;4.40;99.90;;;;;;5050963;28;20597;-29
2022/12/09 00:19:29;;;;;;;22.60;17.90;;;4.30;99.90;;;;;;5050397;28;20194;-32
2022/12/09 00:21:54;;;;;;;26.10;18.17;;;4.40;99.90;;;;;;5050584;28;20288;-34
2022/12/09 00:24:20;;;;;;;21.40;16.70;;;4.50;99.90;;;;;;5049289;28;20220;-33
2022/12/09 00:26:45;;;;;;;24.73;17.70;;;4.30;99.90;;;;;;5050653;28;20249;-37
2022/12/09 00:29:11;;;;;;;26.87;18.83;;;4.40;99.90;;;;;;5050400;28;20194;-32
2022/12/09 00:31:37;;;;;;;22.90;16.90;;;4.40;99.90;;;;;;5049257;28;20667;-32
2022/12/09 00:34:10;;;;;;;26.67;18.30;;;4.40;99.90;;;;;;5049864;28;20235;-34
2022/12/09 00:36:35;;;;;;;20.97;17.40;;;4.40;99.90;;;;;;5050244;28;20424;-35
2022/12/09 00:39:01;;;;;;;25.47;18.23;;;4.50;99.90;;;;;;5049828;28;20764;-30
2022/12/09 00:41:27;;;;;;;24.07;17.93;;;4.50;99.90;;;;;;5050513;28;20200;-30
2022/12/09 00:43:53;;;;;;;24.30;18.13;;;4.60;99.90;;;;;;5049981;28;20208;-31
2022/12/09 00:46:19;;;;;;;25.50;18.93;;;4.40;99.90;;;;;;5050228;28;20468;-34
2022/12/09 00:48:45;;;;;;;24.10;17.50;;;4.50;99.90;;;;;;5048426;28;20498;-35
2022/12/09 00:51:17;;;;;;;25.10;17.80;;;4.40;99.90;;;;;;5050165;28;20255;-33
2022/12/09 00:53:44;;;;;;;23.50;18.50;;;4.50;99.90;;;;;;5049757;28;20431;-31
2022/12/09 00:56:10;;;;;;;23.73;18.13;;;4.40;99.90;;;;;;5048608;28;20424;-35
2022/12/09 00:58:35;;;;;;;22.37;17.30;;;4.60;99.90;;;;;;5049445;28;20420;-33
2022/12/09 01:01:01;;;;;;;26.60;19.43;;;4.50;99.90;;;;;;5050117;28;20426;-30
2022/12/09 01:03:27;;;;;;;22.90;18.13;;;4.50;99.90;;;;;;5049437;28;20201;-31
2022/12/09 01:05:54;;;;;;;25.73;19.07;;;4.60;99.90;;;;;;5048223;28;20511;-34
2022/12/09 01:08:19;;;;;;;26.70;19.50;;;4.60;99.90;;;;;;5050120;28;20221;-32
2022/12/09 01:10:46;;;;;;;23.10;18.20;;;4.30;99.90;;;;;;5049447;28;20506;-34
2022/12/09 01:13:12;;;;;;;21.27;17.37;;;4.50;99.90;;;;;;5049475;28;20185;-29
2022/12/09 01:15:38;;;;;;;24.87;19.10;;;4.50;99.90;;;;;;5049663;28;20927;-37
2022/12/09 01:18:04;;;;;;;27.40;18.47;;;4.40;99.90;;;;;;5049665;28;20435;-33
2022/12/09 01:20:30;;;;;;;23.67;17.50;;;4.30;99.90;;;;;;5049067;28;20197;-34
2022/12/09 01:22:55;;;;;;;24.57;18.30;;;4.40;99.90;;;;;;5049178;28;20934;-31
2022/12/09 01:25:21;;;;;;;29.57;19.70;;;4.50;99.90;;;;;;5049355;28;20240;-33
2022/12/09 01:27:47;;;;;;;25.10;18.53;;;4.40;99.90;;;;;;5049585;28;20208;-32
2022/12/09 01:30:13;;;;;;;27.03;19.83;;;4.30;99.90;;;;;;5047904;28;20316;-36
2022/12/09 01:32:39;;;;;;;24.37;17.77;;;4.30;99.90;;;;;;5049186;28;20189;-32
2022/12/09 01:35:06;;;;;;;24.30;17.37;;;4.50;99.90;;;;;;5029987;28;20858;-33
2022/12/09 01:37:33;;;;;;;27.50;19.80;;;4.30;99.90;;;;;;5049336;28;20441;-32
2022/12/09 01:39:59;;;;;;;26.67;18.23;;;4.50;99.90;;;;;;5049148;28;20470;-31
2022/12/09 01:42:25;;;;;;;24.40;19.40;;;4.60;99.90;;;;;;5048853;28;20918;-38
2022/12/09 01:45:19;;;;;;;26.40;18.60;;;4.40;99.90;;;;;;5049329;28;20182;-34
2022/12/09 01:47:51;;;;;;;24.80;18.47;;;4.40;99.90;;;;;;5049360;28;20761;-35
2022/12/09 01:50:17;;;;;;;25.43;17.93;;;4.40;99.90;;;;;;5048048;28;20439;-32
2022/12/09 01:52:45;;;;;;;27.90;19.97;;;4.60;99.90;;;;;;5048596;28;20436;-37
2022/12/09 01:55:12;;;;;;;27.77;19.50;;;4.50;99.90;;;;;;5048941;28;20467;-29
2022/12/09 01:57:38;;;;;;;30.33;20.30;;;4.40;99.90;;;;;;5048639;28;20512;-32
2022/12/09 02:00:04;;;;;;;31.30;20.63;;;4.50;99.90;;;;;;5048470;28;20923;-31
2022/12/09 02:02:33;;;;;;;25.90;19.83;;;4.60;99.90;;;;;;5047187;28;20516;-36
2022/12/09 02:04:58;;;;;;;25.80;18.87;;;4.30;99.90;;;;;;5048778;28;21013;-31
2022/12/09 02:07:25;;;;;;;29.63;19.63;;;4.40;99.90;;;;;;5046302;28;20459;-35
2022/12/09 02:09:51;;;;;;;25.73;18.90;;;4.40;99.90;;;;;;5028682;28;20182;-33
2022/12/09 02:12:37;;;;;;;27.33;20.50;;;4.30;99.90;;;;;;5035745;28;20507;-34
2022/12/09 02:15:07;;;;;;;28.13;20.10;;;4.50;99.90;;;;;;5047616;28;20780;-36
2022/12/09 02:17:43;;;;;;;28.57;20.40;;;4.40;99.90;;;;;;5048899;28;20404;-29
2022/12/09 02:20:35;;;;;;;26.53;19.67;;;4.40;99.90;;;;;;5048321;28;20895;-37
2022/12/09 02:23:15;;;;;;;25.03;19.00;;;4.50;99.90;;;;;;5048031;28;20486;-35
2022/12/09 02:25:44;;;;;;;29.23;19.53;;;4.30;99.90;;;;;;5048802;28;20532;-38
2022/12/09 02:28:21;;;;;;;25.20;19.30;;;4.30;99.90;;;;;;5048569;28;20814;-31
2022/12/09 02:31:05;;;;;;;24.23;19.70;;;4.30;99.90;;;;;;5048386;28;20508;-33
2022/12/09 02:33:59;;;;;;;26.00;18.67;;;4.60;99.90;;;;;;5047467;28;20461;-32
2022/12/09 02:36:29;;;;;;;26.30;19.27;;;4.40;99.90;;;;;;5048447;28;20503;-35
2022/12/09 02:38:57;;;;;;;30.37;21.10;;;4.50;99.90;;;;;;5048212;28;20683;-33
2022/12/09 02:41:29;;;;;;;30.50;20.50;;;4.60;99.90;;;;;;5048457;28;20444;-31
2022/12/09 02:43:59;;;;;;;27.80;20.40;;;4.30;99.90;;;;;;5047816;28;20720;-33
2022/12/09 02:46:26;;;;;;;27.93;19.97;;;4.30;99.90;;;;;;5048067;28;20458;-34
2022/12/09 02:48:55;;;;;;;23.47;18.33;;;4.30;99.90;;;;;;5047981;28;20946;-34
2022/12/09 02:51:23;;;;;;;31.00;22.40;;;4.20;99.90;;;;;;5048240;28;20440;-35
2022/12/09 02:53:52;;;;;;;29.10;21.40;;;4.40;99.90;;;;;;5047891;28;20493;-34
2022/12/09 02:56:20;;;;;;;26.93;19.77;;;4.30;99.90;;;;;;5047310;28;20507;-34
2022/12/09 02:58:47;;;;;;;27.40;21.47;;;4.40;99.90;;;;;;5047711;28;20830;-32
2022/12/09 03:02:01;;;;;;;28.93;20.47;;;4.30;99.90;;;;;;5048038;28;20416;-35
2022/12/09 03:04:28;;;;;;;29.97;19.60;;;4.30;99.90;;;;;;5045370;28;20769;-31
2022/12/09 03:07:01;;;;;;;28.00;20.70;;;4.40;99.90;;;;;;5047843;28;20549;-34
2022/12/09 03:09:35;;;;;;;30.13;20.67;;;4.30;99.90;;;;;;5047721;28;20413;-33
2022/12/09 03:12:06;;;;;;;28.33;20.57;;;4.50;99.90;;;;;;5048294;28;20458;-31
2022/12/09 03:14:39;;;;;;;32.47;21.57;;;4.50;99.90;;;;;;5048006;28;20416;-30
2022/12/09 03:17:16;;;;;;;27.23;19.97;;;4.20;99.90;;;;;;5047778;28;20528;-34
2022/12/09 03:19:59;;;;;;;26.77;19.47;;;4.30;99.90;;;;;;5048086;28;20451;-30
2022/12/09 03:22:28;;;;;;;30.03;20.40;;;4.50;99.90;;;;;;5047692;28;20509;-31
2022/12/09 03:25:12;;;;;;;34.23;21.97;;;4.40;99.90;;;;;;5047848;28;20569;-32
2022/12/09 03:28:00;;;;;;;28.20;20.00;;;4.30;99.90;;;;;;5047510;28;20455;-32
2022/12/09 03:30:26;;;;;;;24.40;19.20;;;4.30;99.90;;;;;;5047804;28;20499;-33
2022/12/09 03:32:54;;;;;;;30.70;21.40;;;4.50;99.90;;;;;;5047367;28;20479;-35
2022/12/09 03:35:23;;;;;;;29.37;20.30;;;4.40;99.90;;;;;;5047028;28;20186;-32
2022/12/09 03:37:50;;;;;;;30.77;20.63;;;4.30;99.90;;;;;;5047585;28;20606;-32
2022/12/09 03:40:21;;;;;;;26.83;19.10;;;4.30;99.90;;;;;;5047344;28;20417;-33
2022/12/09 03:42:57;;;;;;;25.50;19.13;;;4.30;99.90;;;;;;5047496;28;20416;-31
2022/12/09 03:45:23;;;;;;;27.57;19.90;;;4.20;99.90;;;;;;5047676;28;20539;-34
2022/12/09 03:47:50;;;;;;;25.80;19.07;;;4.40;99.90;;;;;;5047971;28;20511;-35
2022/12/09 03:50:16;;;;;;;28.30;20.10;;;4.40;99.90;;;;;;5047249;28;20408;-30
2022/12/09 03:52:44;;;;;;;27.47;19.83;;;4.40;99.90;;;;;;5047373;28;20833;-33
2022/12/09 03:55:21;;;;;;;28.90;21.10;;;4.20;99.90;;;;;;5047631;28;20404;-32
2022/12/09 03:57:50;;;;;;;27.50;20.40;;;4.30;99.90;;;;;;5047538;28;20427;-32
2022/12/09 04:00:17;;;;;;;24.10;19.40;;;4.30;99.90;;;;;;5045824;28;20420;-33
2022/12/09 04:02:43;;;;;;;25.40;17.97;;;4.20;99.90;;;;;;5047163;28;20413;-33
2022/12/09 04:05:09;;;;;;;24.70;18.97;;;4.20;99.90;;;;;;5047001;28;20428;-32
2022/12/09 04:07:35;;;;;;;29.60;21.33;;;4.20;99.90;;;;;;5046205;28;20790;-35
2022/12/09 04:10:01;;;;;;;28.77;21.70;;;4.30;99.90;;;;;;5047042;28;20421;-32
2022/12/09 04:12:26;;;;;;;26.73;21.07;;;4.20;99.90;;;;;;5047301;28;20178;-31
2022/12/09 04:14:52;;;;;;;33.20;20.73;;;4.20;99.90;;;;;;5051392;28;20538;-31
2022/12/09 04:17:17;;;;;;;27.40;20.00;;;4.20;99.90;;;;;;5051050;28;20186;-32
2022/12/09 04:19:43;;;;;;;30.90;19.70;;;4.40;99.90;;;;;;5050518;28;20729;-34
2022/12/09 04:22:09;;;;;;;28.97;19.40;;;4.30;99.90;;;;;;5050877;28;20783;-36
2022/12/09 04:24:34;;;;;;;29.23;20.90;;;4.20;99.90;;;;;;5050687;28;20335;-35
2022/12/09 04:27:00;;;;;;;28.10;20.40;;;4.30;99.90;;;;;;5051045;28;20267;-33
2022/12/09 04:29:26;;;;;;;27.03;20.20;;;4.30;99.90;;;;;;5050493;28;20610;-35
2022/12/09 04:31:51;;;;;;;27.13;21.70;;;4.20;99.90;;;;;;5050582;28;20174;-30
2022/12/09 04:34:17;;;;;;;25.43;19.20;;;4.30;99.90;;;;;;5048740;28;20174;-34
2022/12/09 04:36:42;;;;;;;27.43;20.40;;;4.30;99.90;;;;;;5050373;28;20182;-35
2022/12/09 04:39:08;;;;;;;27.07;18.50;;;4.40;99.90;;;;;;5048780;28;20757;-34
2022/12/09 04:41:35;;;;;;;28.60;19.43;;;4.10;99.90;;;;;;5050415;28;20186;-35
2022/12/09 04:44:01;;;;;;;25.23;18.33;;;4.20;99.90;;;;;;5050300;28;20541;-31
2022/12/09 04:46:27;;;;;;;27.57;20.47;;;4.40;99.90;;;;;;5050546;28;21142;-32
2022/12/09 04:48:52;;;;;;;27.87;18.83;;;4.40;99.90;;;;;;5049745;28;20507;-34
2022/12/09 04:51:18;;;;;;;29.87;20.50;;;4.40;99.90;;;;;;5050615;28;20245;-38
2022/12/09 04:53:44;;;;;;;31.67;20.70;;;4.40;99.90;;;;;;5050099;28;20201;-30
2022/12/09 04:56:12;;;;;;;24.77;19.17;;;4.40;99.90;;;;;;5050440;28;20182;-31
2022/12/09 04:58:37;;;;;;;24.53;18.70;;;4.30;99.90;;;;;;5049727;28;20248;-31
2022/12/09 05:01:08;;;;;;;26.97;18.87;;;4.20;99.90;;;;;;5050214;28;20413;-31
2022/12/09 05:03:34;;;;;;;25.60;19.13;;;4.20;99.90;;;;;;5049586;28;20892;-31
2022/12/09 05:06:03;;;;;;;26.00;19.40;;;4.20;99.90;;;;;;5050420;28;20517;-37
2022/12/09 05:08:29;;;;;;;28.53;21.00;;;4.20;99.90;;;;;;5049561;28;20412;-34
2022/12/09 05:10:54;;;;;;;23.30;18.57;;;4.10;99.90;;;;;;5050198;28;20462;-34
2022/12/09 05:13:20;;;;;;;28.67;20.47;;;4.20;99.90;;;;;;5049563;28;20409;-33
2022/12/09 05:15:45;;;;;;;24.27;19.20;;;4.20;99.90;;;;;;5049640;28;20188;-31
2022/12/09 05:18:11;;;;;;;27.93;20.57;;;4.10;99.90;;;;;;5049911;28;20178;-32
2022/12/09 05:20:38;;;;;;;27.37;18.87;;;4.10;99.90;;;;;;5049519;28;20181;-34
2022/12/09 05:23:04;;;;;;;23.10;18.77;;;4.10;99.90;;;;;;5049559;28;20185;-33
2022/12/09 05:25:30;;;;;;;27.80;19.37;;;4.30;99.90;;;;;;5049713;28;20806;-32
2022/12/09 05:27:56;;;;;;;25.70;19.27;;;4.00;99.90;;;;;;5049702;28;20400;-36
2022/12/09 05:30:21;;;;;;;26.93;19.90;;;4.10;99.90;;;;;;5049183;28;20181;-32
2022/12/09 05:32:47;;;;;;;26.17;19.40;;;4.10;99.90;;;;;;5048076;28;20273;-32
2022/12/09 05:35:12;;;;;;;28.03;19.23;;;3.90;99.90;;;;;;5047989;28;20204;-34
2022/12/09 05:37:38;;;;;;;25.40;18.50;;;4.00;99.90;;;;;;5049554;28;20208;-31
2022/12/09 05:40:05;;;;;;;27.03;19.13;;;4.00;99.90;;;;;;5049127;28;20181;-32
2022/12/09 05:42:30;;;;;;;25.10;19.00;;;4.00;99.90;;;;;;5049236;28;20522;-33
2022/12/09 05:44:56;;;;;;;30.90;20.10;;;4.10;99.90;;;;;;5049245;28;20473;-30
2022/12/09 05:47:21;;;;;;;26.73;19.87;;;4.20;99.90;;;;;;5049153;28;20601;-37
2022/12/09 05:49:47;;;;;;;26.73;19.47;;;3.90;99.90;;;;;;5048985;28;20236;-36
2022/12/09 05:52:13;;;;;;;27.83;20.43;;;3.80;99.90;;;;;;5040879;28;20656;-32
2022/12/09 05:54:40;;;;;;;26.80;19.60;;;3.80;99.90;;;;;;5044286;28;20707;-29
2022/12/09 05:57:05;;;;;;;26.03;20.37;;;4.00;99.90;;;;;;5048982;28;20208;-33
2022/12/09 05:59:31;;;;;;;24.90;18.77;;;3.90;99.90;;;;;;5046992;28;20437;-32
2022/12/09 06:01:57;;;;;;;28.30;20.27;;;3.90;99.90;;;;;;5048924;28;20185;-33
2022/12/09 06:04:22;;;;;;;24.70;18.97;;;3.80;99.90;;;;;;5048912;28;20185;-34
2022/12/09 06:06:48;;;;;;;29.50;19.70;;;3.90;99.90;;;;;;5048379;28;20291;-35
2022/12/09 06:09:14;;;;;;;25.03;18.57;;;3.80;99.90;;;;;;5047353;28;20182;-32
2022/12/09 06:11:39;;;;;;;24.37;17.93;;;3.80;99.90;;;;;;5048895;28;20185;-35
2022/12/09 06:14:10;;;;;;;26.53;17.90;;;4.10;99.90;;;;;;5048398;28;20703;-33
2022/12/09 06:16:36;;;;;;;27.17;17.63;;;3.70;99.90;;;;;;5048915;28;20265;-29
2022/12/09 06:19:03;;;;;;;25.47;17.90;;;3.80;99.90;;;;;;5048551;28;20511;-32
2022/12/09 06:21:28;;;;;;;25.53;18.37;;;3.70;99.90;;;;;;5048914;28;20420;-34
2022/12/09 06:23:54;;;;;;;23.50;18.30;;;3.80;99.90;;;;;;5048407;28;20431;-33
2022/12/09 06:26:28;;;;;;;22.70;17.93;;;3.80;99.90;;;;;;5048736;28;20234;-34
2022/12/09 06:28:54;;;;;;;27.70;18.27;;;3.90;99.90;;;;;;5048085;28;20182;-34
2022/12/09 06:31:21;;;;;;;28.13;18.97;;;3.70;99.90;;;;;;5047284;28;20988;-33
2022/12/09 06:33:47;;;;;;;23.77;16.83;;;3.70;99.90;;;;;;5046604;28;20413;-32
2022/12/09 06:36:13;;;;;;;23.73;17.10;;;3.90;99.90;;;;;;5048184;28;20470;-31
2022/12/09 06:38:38;;;;;;;26.50;17.33;;;4.00;99.90;;;;;;5047847;28;20797;-31
2022/12/09 06:41:09;;;;;;;25.23;16.90;;;3.80;99.90;;;;;;5039517;28;20240;-34
2022/12/09 06:43:35;;;;;;;22.07;15.93;;;3.60;99.90;;;;;;5039700;28;20191;-34
2022/12/09 06:46:01;;;;;;;25.17;17.47;;;3.70;99.90;;;;;;5037610;28;20488;-30
2022/12/09 06:48:27;;;;;;;22.77;17.50;;;3.80;99.90;;;;;;5047723;28;20460;-33
2022/12/09 06:50:52;;;;;;;22.13;16.63;;;3.80;99.90;;;;;;5041816;28;20190;-33
2022/12/09 06:53:18;;;;;;;25.60;17.93;;;3.80;99.90;;;;;;5028474;28;20185;-33
2022/12/09 06:55:44;;;;;;;24.93;17.20;;;3.80;99.90;;;;;;5045583;28;20186;-31
2022/12/09 06:58:10;;;;;;;24.80;17.20;;;3.80;99.90;;;;;;5047746;28;20213;-31
2022/12/09 07:00:36;;;;;;;23.13;16.87;;;3.80;99.90;;;;;;5048026;28;20227;-33
2022/12/09 07:03:01;;;;;;;24.00;15.43;;;3.80;99.90;;;;;;5047485;28;20193;-30
2022/12/09 07:05:27;;;;;;;25.17;17.33;;;3.80;99.90;;;;;;5042572;28;20479;-31
2022/12/09 07:07:53;;;;;;;22.50;16.60;;;3.80;99.90;;;;;;5036688;28;20590;-32
2022/12/09 07:10:19;;;;;;;24.63;17.27;;;3.70;99.90;;;;;;5045251;28;20508;-34
2022/12/09 07:12:45;;;;;;;24.57;16.57;;;3.80;99.90;;;;;;5046621;28;20954;-31
2022/12/09 07:15:11;;;;;;;23.50;16.80;;;3.60;99.90;;;;;;5045538;28;20464;-32
2022/12/09 07:17:37;;;;;;;27.33;18.10;;;3.60;99.90;;;;;;5049527;28;20186;-32
2022/12/09 07:20:03;;;;;;;26.30;18.00;;;3.80;99.90;;;;;;5047996;28;20420;-35
2022/12/09 07:22:28;;;;;;;27.97;19.50;;;3.60;99.90;;;;;;5047580;28;20177;-36
2022/12/09 07:24:54;;;;;;;21.47;16.83;;;3.70;99.90;;;;;;5046791;28;20404;-31
2022/12/09 07:27:20;;;;;;;23.10;17.70;;;3.50;99.90;;;;;;5046497;28;20263;-37
2022/12/09 07:29:45;;;;;;;24.30;17.60;;;3.60;99.90;;;;;;5038452;28;20174;-32
2022/12/09 07:32:11;;;;;;;26.80;17.87;;;3.60;99.90;;;;;;5029708;28;20526;-32
2022/12/09 07:34:37;;;;;;;24.57;17.57;;;3.50;99.90;;;;;;5026938;28;20428;-34
2022/12/09 07:37:03;;;;;;;23.20;18.57;;;3.50;99.90;;;;;;5027460;28;20266;-31
2022/12/09 07:39:29;;;;;;;26.80;17.90;;;3.50;99.90;;;;;;5027794;28;20409;-30
2022/12/09 07:41:56;;;;;;;27.57;19.20;;;3.40;99.90;;;;;;5028071;28;20432;-32
2022/12/09 07:44:23;;;;;;;28.60;18.30;;;3.50;99.90;;;;;;5027548;28;20232;-33
2022/12/09 07:46:49;;;;;;;28.23;18.03;;;3.70;99.90;;;;;;5028001;28;20448;-32
2022/12/09 07:49:15;;;;;;;30.73;19.40;;;3.50;99.90;;;;;;5030328;28;20483;-30
2022/12/09 07:51:42;;;;;;;26.53;19.60;;;3.60;99.90;;;;;;5031698;28;20179;-32
2022/12/09 07:54:16;;;;;;;29.07;20.20;;;3.60;99.90;;;;;;5031224;28;20409;-37
2022/12/09 07:56:42;;;;;;;26.60;18.67;;;3.70;99.90;;;;;;5031711;28;20423;-34
2022/12/09 07:59:10;;;;;;;27.13;18.07;;;3.50;99.90;;;;;;5046931;28;20751;-33
2022/12/09 08:01:37;;;;;;;29.23;17.73;;;3.70;99.90;;;;;;5051710;28;20417;-32
2022/12/09 08:04:04;;;;;;;30.27;21.23;;;3.50;99.90;;;;;;5051296;28;20443;-34
2022/12/09 08:06:30;;;;;;;26.97;18.30;;;3.60;99.90;;;;;;5051242;28;20460;-29
2022/12/09 08:09:04;;;;;;;26.80;19.40;;;3.70;99.90;;;;;;5050753;28;20415;-31
2022/12/09 08:11:31;;;;;;;26.50;19.30;;;3.60;99.90;;;;;;5051328;28;20184;-30
2022/12/09 08:13:59;;;;;;;27.93;17.97;;;3.60;99.90;;;;;;5050897;28;20412;-28
2022/12/09 08:16:25;;;;;;;25.73;18.60;;;3.70;99.90;;;;;;5051227;28;20408;-34
2022/12/09 08:18:52;;;;;;;28.47;18.90;;;3.70;99.90;;;;;;5050759;28;20946;-32
2022/12/09 08:21:21;;;;;;;28.70;18.73;;;3.50;99.90;;;;;;5050946;28;20416;-32
2022/12/09 08:23:48;;;;;;;29.60;20.33;;;3.60;99.90;;;;;;5050841;28;20873;-34
2022/12/09 08:26:15;;;;;;;27.17;19.70;;;3.60;99.90;;;;;;5050832;28;20986;-29
2022/12/09 08:28:42;;;;;;;30.07;20.53;;;3.50;99.90;;;;;;5050539;28;21005;-36
2022/12/09 08:31:10;;;;;;;32.17;22.00;;;3.60;99.90;;;;;;5050908;28;20444;-32
2022/12/09 08:33:36;;;;;;;36.07;24.27;;;3.70;99.90;;;;;;5049205;28;20546;-32
2022/12/09 08:36:06;;;;;;;35.87;24.90;;;3.60;99.90;;;;;;5049046;28;20963;-31
2022/12/09 08:38:31;;;;;;;35.60;22.50;;;3.60;99.90;;;;;;5050429;28;20408;-32
2022/12/09 08:40:57;;;;;;;33.00;22.50;;;3.60;99.90;;;;;;5050808;28;20431;-34
2022/12/09 08:43:23;;;;;;;27.27;21.07;;;3.80;99.90;;;;;;5050343;28;20264;-36
2022/12/09 08:45:48;;;;;;;27.97;20.23;;;3.80;99.90;;;;;;5051011;28;20273;-34
2022/12/09 08:48:14;;;;;;;29.43;19.53;;;3.80;99.90;;;;;;5050350;28;20455;-33
2022/12/09 08:50:40;;;;;;;29.03;19.37;;;3.80;99.90;;;;;;5050216;28;20444;-34
2022/12/09 08:53:05;;;;;;;30.00;20.87;;;3.80;99.90;;;;;;5050069;28;20589;-35
2022/12/09 08:55:31;;;;;;;28.17;19.27;;;3.80;99.90;;;;;;5050587;28;20711;-30
2022/12/09 08:57:57;;;;;;;30.50;21.20;;;3.70;99.90;;;;;;5050239;28;20209;-35
2022/12/09 09:00:22;;;;;;;25.87;18.90;;;3.80;99.90;;;;;;5049748;28;20182;-29
2022/12/09 09:02:48;;;;;;;25.50;17.30;;;3.70;99.90;;;;;;5049803;28;20177;-29
2022/12/09 09:05:13;;;;;;;26.37;16.97;;;3.90;99.90;;;;;;5050135;28;20766;-33
2022/12/09 09:07:39;;;;;;;26.50;19.07;;;3.80;99.90;;;;;;5050137;28;20273;-32
2022/12/09 09:10:06;;;;;;;25.87;18.27;;;3.90;99.90;;;;;;5050597;28;20178;-34
2022/12/09 09:12:32;;;;;;;29.60;18.93;;;3.80;99.90;;;;;;5015565;28;20448;-31
2022/12/09 09:14:58;;;;;;;26.33;19.20;;;3.90;99.90;;;;;;5050331;28;20486;-31
2022/12/09 09:17:23;;;;;;;22.90;16.80;;;3.80;99.90;;;;;;5049990;28;20859;-34
2022/12/09 09:19:49;;;;;;;27.23;17.77;;;3.90;99.90;;;;;;5049568;28;20283;-32
2022/12/09 09:22:15;;;;;;;24.03;18.97;;;4.00;99.90;;;;;;5049930;28;20525;-35
2022/12/09 09:24:41;;;;;;;28.97;20.17;;;4.00;99.90;;;;;;5048901;28;20510;-32
2022/12/09 09:27:06;;;;;;;31.97;19.90;;;4.00;99.90;;;;;;5044922;28;20475;-36
2022/12/09 09:29:34;;;;;;;27.80;19.47;;;4.10;99.90;;;;;;5049074;28;20208;-32
2022/12/09 09:32:00;;;;;;;27.60;20.63;;;4.10;99.90;;;;;;5046067;28;20464;-34
2022/12/09 09:34:26;;;;;;;29.50;20.83;;;4.10;99.90;;;;;;5047266;28;20556;-33
2022/12/09 09:36:53;;;;;;;26.70;20.00;;;4.10;99.90;;;;;;5051068;28;20644;-31
2022/12/09 09:39:20;;;;;;;27.20;20.40;;;4.10;99.90;;;;;;5043833;28;20436;-30
2022/12/09 09:41:53;;;;;;;30.10;20.17;;;4.20;99.90;;;;;;5049295;28;20459;-36
2022/12/09 09:44:33;;;;;;;25.50;19.10;;;4.20;99.90;;;;;;5050832;28;20409;-34
2022/12/09 09:47:02;;;;;;;33.43;18.70;;;4.20;99.90;;;;;;5050798;28;20509;-30
2022/12/09 09:49:37;;;;;;;27.17;18.67;;;4.50;99.90;;;;;;5044341;28;20939;-34
2022/12/09 09:52:08;;;;;;;23.80;16.83;;;4.40;99.90;;;;;;5047592;28;20419;-34
2022/12/09 09:54:34;;;;;;;24.70;17.20;;;4.40;99.90;;;;;;5045370;28;20482;-32
2022/12/09 09:57:04;;;;;;;23.10;16.87;;;4.20;99.90;;;;;;5044681;28;20443;-34
2022/12/09 09:59:48;;;;;;;25.57;17.93;;;4.60;99.90;;;;;;5050627;28;20860;-32
2022/12/09 10:02:26;;;;;;;22.27;16.73;;;4.50;99.90;;;;;;5043963;28;20441;-36
2022/12/09 10:05:03;;;;;;;25.83;17.67;;;4.60;99.90;;;;;;5047205;28;20585;-32
2022/12/09 10:07:42;;;;;;;29.50;18.23;;;4.40;99.90;;;;;;5050338;28;20487;-32
2022/12/09 10:10:27;;;;;;;22.63;16.63;;;4.50;99.90;;;;;;5048322;28;20432;-34
2022/12/09 10:13:23;;;;;;;32.80;17.50;;;4.40;99.90;;;;;;5043503;28;20431;-35
2022/12/09 10:16:12;;;;;;;24.03;16.40;;;4.30;99.90;;;;;;5042212;28;20451;-30
2022/12/09 10:18:41;;;;;;;22.03;15.93;;;4.50;99.90;;;;;;5050024;28;20440;-37
2022/12/09 10:21:19;;;;;;;23.40;16.83;;;4.60;99.90;;;;;;5050615;28;20438;-35
2022/12/09 10:23:46;;;;;;;462.27;59.93;;;4.50;99.90;;;;;;5049897;28;20428;-31
2022/12/09 10:26:36;;;;;;;24.97;18.07;;;4.40;99.90;;;;;;5049015;28;20444;-35
2022/12/09 10:29:32;;;;;;;22.20;15.80;;;4.50;99.90;;;;;;5050213;28;20412;-37
2022/12/09 10:31:58;;;;;;;16.37;11.83;;;4.40;99.90;;;;;;5050106;28;20409;-40
2022/12/09 10:34:24;;;;;;;22.97;12.27;;;4.40;99.90;;;;;;5048501;28;20901;-34
2022/12/09 10:36:50;;;;;;;14.30;11.50;;;4.70;99.90;;;;;;5050070;28;20598;-34
2022/12/09 10:39:20;;;;;;;17.70;12.80;;;4.50;99.90;;;;;;5047965;28;20449;-39
2022/12/09 10:44:40;;;;;;;20.63;13.03;;;4.30;99.90;;;;;;5046321;28;20458;-38
2022/12/09 10:47:27;;;;;;;21.20;16.37;;;4.50;99.90;;;;;;5047551;28;20519;-37
2022/12/09 10:49:54;;;;;;;21.20;15.40;;;4.50;99.90;;;;;;5049014;28;20201;-36
2022/12/09 10:52:40;;;;;;;22.13;15.53;;;4.50;99.90;;;;;;5049233;28;20416;-35
2022/12/09 10:55:19;;;;;;;19.63;14.70;;;4.40;99.90;;;;;;5049212;28;20416;-37
2022/12/09 10:57:44;;;;;;;19.67;13.27;;;4.60;99.90;;;;;;5049467;28;21118;-36
2022/12/09 11:00:28;;;;;;;23.40;15.07;;;4.50;99.90;;;;;;5049578;28;20641;-37
2022/12/09 11:02:54;;;;;;;21.90;15.90;;;4.60;99.90;;;;;;5048352;28;20178;-37
2022/12/09 11:05:24;;;;;;;21.30;15.90;;;4.70;99.90;;;;;;5049531;28;20439;-35
2022/12/09 11:07:51;;;;;;;18.50;14.87;;;4.60;99.90;;;;;;5049705;28;20848;-34
2022/12/09 11:10:25;;;;;;;17.53;14.13;;;4.60;99.90;;;;;;5048910;28;20427;-35
2022/12/09 11:13:07;;;;;;;22.30;15.60;;;4.60;99.90;;;;;;5049085;28;20435;-31
2022/12/09 11:15:44;;;;;;;19.97;14.70;;;4.70;99.90;;;;;;5049745;28;20435;-37
2022/12/09 11:18:28;;;;;;;19.07;14.60;;;5.10;99.90;;;;;;5049864;28;20456;-37
2022/12/09 11:21:00;;;;;;;21.33;15.20;;;4.90;99.90;;;;;;5049714;28;20425;-36
2022/12/09 11:23:27;;;;;;;20.60;14.80;;;5.10;99.90;;;;;;5053018;28;20452;-38
2022/12/09 11:25:56;;;;;;;23.83;17.00;;;5.00;99.90;;;;;;5053716;28;20444;-37
2022/12/09 11:28:34;;;;;;;21.00;15.80;;;5.10;99.90;;;;;;5050047;28;20425;-36
2022/12/09 11:31:06;;;;;;;17.80;13.40;;;5.30;99.90;;;;;;5042231;28;20429;-34
2022/12/09 11:33:35;;;;;;;19.07;14.73;;;5.60;99.90;;;;;;5048357;28;20803;-33
2022/12/09 11:36:09;;;;;;;19.00;14.60;;;5.50;99.90;;;;;;5034188;28;20425;-36
2022/12/09 11:38:43;;;;;;;19.70;14.00;;;5.60;99.90;;;;;;5039633;28;20953;-37
2022/12/09 11:42:12;;;;;;;15.33;12.90;;;5.40;99.90;;;;;;5033415;28;20432;-36
2022/12/09 11:44:01;;;;;;;19.07;13.23;;;5.40;99.90;;;;;;5032891;28;20827;-33
2022/12/09 11:46:30;;;;;;;19.83;13.20;;;5.30;99.90;;;;;;5033439;28;20518;-46
2022/12/09 11:49:16;;;;;;;18.37;13.30;;;5.20;99.90;;;;;;5031507;28;20421;-46
2022/12/09 11:51:57;;;;;;;18.87;13.57;;;5.20;99.90;;;;;;5032160;28;20421;-46
2022/12/09 11:54:37;;;;;;;16.03;12.07;;;5.20;99.90;;;;;;5032935;28;20425;-45
2022/12/09 11:57:13;;;;;;;17.60;13.70;;;5.00;99.90;;;;;;5031960;28;20950;-45
2022/12/09 11:59:48;;;;;;;18.87;13.33;;;5.10;99.90;;;;;;5051064;28;20803;-45
2022/12/09 12:02:24;;;;;;;17.03;12.30;;;5.00;99.90;;;;;;5051108;28;20583;-45
2022/12/09 12:05:16;;;;;;;17.00;13.53;;;4.90;99.90;;;;;;5050914;28;20432;-45
2022/12/09 12:07:51;;;;;;;23.00;14.67;;;5.10;99.90;;;;;;5052724;28;20431;-45
2022/12/09 12:10:24;;;;;;;21.73;14.87;;;5.00;99.90;;;;;;5052344;28;20406;-45
2022/12/09 12:12:55;;;;;;;24.07;15.43;;;4.90;99.90;;;;;;5052276;28;20519;-45
2022/12/09 12:15:28;;;;;;;18.70;15.30;;;4.70;99.90;;;;;;5052698;28;20557;-45
2022/12/09 12:17:59;;;;;;;18.50;13.90;;;4.90;99.90;;;;;;5052016;28;20482;-45
2022/12/09 12:20:41;;;;;;;19.50;15.40;;;4.70;99.90;;;;;;5051417;28;20424;-45
2022/12/09 12:23:18;;;;;;;20.30;14.60;;;4.70;99.90;;;;;;5052177;28;20542;-45
2022/12/09 12:26:05;;;;;;;19.17;14.27;;;4.80;99.90;;;;;;5052701;28;20477;-45
2022/12/09 12:28:49;;;;;;;21.90;14.73;;;4.70;99.90;;;;;;5052208;28;20420;-45
2022/12/09 12:31:43;;;;;;;19.30;14.20;;;4.90;99.90;;;;;;5052189;28;20499;-45
2022/12/09 12:34:24;;;;;;;21.87;14.67;;;4.80;99.90;;;;;;5049616;28;20412;-45
2022/12/09 12:37:07;;;;;;;21.73;14.77;;;4.80;99.90;;;;;;5048938;28;20424;-45
2022/12/09 12:39:54;;;;;;;22.27;14.93;;;4.70;99.90;;;;;;5050346;28;20435;-45
2022/12/09 12:42:32;;;;;;;23.50;15.13;;;4.70;99.90;;;;;;5051903;28;20427;-45
2022/12/09 12:48:14;;;;;;;18.37;13.90;;;5.00;99.90;;;;;;5051674;28;20833;-45
2022/12/09 12:51:11;;;;;;;20.70;14.60;;;5.00;99.90;;;;;;5051923;28;20443;-45
2022/12/09 12:53:48;;;;;;;19.70;14.80;;;4.80;99.90;;;;;;5047565;28;20507;-45